Weather

Rainfall Maps have ended for the season and will begin again on May 1st.

DAILY 7 DAY TOTAL
onrain

Note: Some stations are located near irrigated fields and may also report irrigation

Alliston Mount Forest Blyth Guelph Grand Bend Strathroy Woodstock Belmont Simcoe Leamington Chatham West Lorne






Simcoe-Research Station - Historical Weather Data
Date Max Temp (°C) Min Temp (°C) Avg Temp (°C) Rain (mm) 7Day Rain(mm) Total Rain(mm) Avg RH (%)
10/31/2017 6.2 3.7 4.9 0.0 7.6 460.6 67.5
10/30/2017 8.6 4.0 5.7 0.6 12.8 460.6 77.4
10/29/2017 8.2 3.8 5.6 0.0 27.8 460.0 78.3
10/28/2017 11.5 3.5 6.6 2.2 28.0 460.0 87.9
10/27/2017 17.3 3.1 10.8 0.0 25.8 457.8 74.2
10/26/2017 11.6 -0.3 5.2 0.0 25.8 457.8 80.5
10/25/2017 10.1 2.6 7.2 4.8 25.8 457.8 81.3
10/24/2017 15.1 9.7 12.4 5.2 21.0 453.0 78.2
10/23/2017 19.1 14.9 16.8 15.6 15.8 447.8 84.6
10/22/2017 23.0 10.8 16.2 0.2 0.2 432.2 82.4
10/21/2017 21.9 7.3 14.6 0.0 0.0 432.0 77.9
10/20/2017 20.5 5.9 13.2 0.0 9.4 432.0 56.4
10/19/2017 19.2 9.9 15.5 0.0 9.4 432.0 68.9
10/18/2017 19.4 11.1 15.1 0.0 10.2 432.0 66.4
10/17/2017 17.2 1.5 11.7 0.0 25.0 432.0 68.5
10/16/2017 11.3 2.2 6.6 0.0 25.2 432.0 74.4
10/15/2017 23.8 8.5 17.5 0.0 89.2 432.0 83.2
10/14/2017 20.1 13.9 16.1 9.4 92.6 432.0 96.1
10/13/2017 20.6 14.9 16.8 0.0 86.8 422.6 86.1
10/12/2017 15.4 9.5 12.4 0.8 90.4 422.6 95.6
10/11/2017 14.9 9.6 11.7 14.8 89.6 421.8 85.4
10/10/2017 25.0 13.1 18.1 0.2 79.2 407.0 81.5
10/9/2017 21.6 13.6 17.2 64.0 79.0 406.8 93.9
10/8/2017 23.8 15.1 18.9 3.4 15.0 342.8 80.0
10/7/2017 26.2 17.7 21.5 3.6 11.6 339.4 80.5
10/6/2017 20.7 13.4 16.4 3.6 8.0 335.8 91.2
10/5/2017 21.6 9.3 16.3 0.0 5.8 332.2 75.8
10/4/2017 24.6 16.6 20.8 4.4 5.8 332.2 77.8
10/3/2017 25.2 7.1 16.7 0.0 1.4 327.8 73.5
10/2/2017 21.2 7.0 13.9 0.0 1.4 327.8 68.3
10/1/2017 17.0 1.8 10.2 0.0 1.4 327.8 68.1
9/30/2017 15.6 5.0 9.7 0.0 1.4 327.8 68.3
9/29/2017 19.4 6.0 11.5 1.4 1.4 327.8 79.6
9/28/2017 17.2 7.2 13.8 0.0 0.0 326.4 66.9
9/27/2017 29.4 15.0 21.9 0.0 0.0 326.4 77.0
9/26/2017 31.5 17.6 24.1 0.0 0.0 326.4 73.1
9/25/2017 30.6 15.9 23.3 0.0 0.0 326.4 75.6
9/24/2017 31.9 16.0 24.2 0.0 0.2 326.4 66.3
9/23/2017 31.3 13.9 22.5 0.0 0.2 326.4 66.0
9/22/2017 28.4 15.1 21.0 0.0 0.2 326.4 71.1
9/21/2017 27.2 16.3 21.3 0.0 0.2 326.4 80.0
9/20/2017 27.4 17.4 21.3 0.0 0.2 326.4 83.7
9/19/2017 27.1 17.2 21.2 0.0 0.2 326.4 87.1
9/18/2017 27.2 14.9 21.2 0.2 0.2 326.4 83.6
9/17/2017 27.2 14.0 20.0 0.0 0.0 326.2 85.4
9/16/2017 26.5 12.2 18.9 0.0 0.0 326.2 81.6
9/15/2017 25.2 13.7 19.2 0.0 0.0 326.2 83.3
9/14/2017 25.2 16.5 19.9 0.0 1.6 326.2 82.8
9/13/2017 25.2 12.9 19.0 0.0 3.2 326.2 82.4
9/12/2017 25.1 8.1 16.4 0.0 4.8 326.2 79.2
9/11/2017 21.7 6.5 14.5 0.0 4.8 326.2 74.1
9/10/2017 19.6 7.3 13.2 0.0 4.8 326.2 71.0
9/9/2017 17.6 7.0 11.8 0.0 4.8 326.2 73.7
9/8/2017 17.6 8.8 13.1 1.6 5.8 326.2 81.7
9/7/2017 17.7 8.2 12.7 1.6 4.2 324.6 85.0
9/6/2017 20.0 11.3 16.7 1.6 2.8 323.0 67.7
9/2/2017 19.7 7.9 13.6 1.0 1.2 321.4 71.5
9/1/2017 17.5 7.2 11.9 0.0 0.2 320.4 68.2
8/31/2017 20.2 9.6 16.5 0.2 0.2 320.4 74.6
8/30/2017 24.8 12.2 18.7 0.0 0.0 320.2 82.6
8/29/2017 23.4 15.1 19.5 0.0 0.0 320.2 69.4
8/28/2017 22.5 14.7 18.6 0.0 2.0 320.2 74.9
8/27/2017 24.0 10.6 17.3 0.0 2.0 320.2 70.2
8/26/2017 22.1 8.4 15.7 0.0 2.0 320.2 67.5
8/25/2017 21.7 9.2 15.5 0.0 2.0 320.2 68.1
8/24/2017 21.6 10.7 15.8 0.0 2.0 320.2 77.1
8/23/2017 22.7 12.6 17.6 0.0 10.8 320.2 72.5
8/22/2017 25.5 16.6 22.8 2.0 10.8 320.2 84.5
8/21/2017 30.0 17.5 23.2 0.0 8.8 318.2 80.5
8/20/2017 27.1 15.9 21.2 0.0 8.8 318.2 73.9
8/19/2017 24.0 16.2 19.4 0.0 8.8 318.2 78.8
8/18/2017 24.6 20.3 22.5 0.0 9.0 318.2 91.2
8/17/2017 23.7 15.7 19.9 8.8 10.4 318.2 92.6
8/16/2017 25.3 13.4 19.4 0.0 1.6 309.4 81.0
8/15/2017 27.6 15.2 21.2 0.0 1.6 309.4 77.2
8/14/2017 25.5 13.9 19.8 0.0 1.8 309.4 76.1
8/13/2017 24.5 13.8 19.4 0.0 4.8 309.4 74.9
8/12/2017 25.2 16.7 20.5 0.2 4.8 309.4 80.7
8/11/2017 23.1 18.9 20.6 1.4 4.6 309.2 89.7
8/10/2017 26.4 15.9 21.0 0.0 16.8 307.8 80.6
8/9/2017 27.8 15.6 21.8 0.0 16.8 307.8 73.6
8/8/2017 25.5 11.2 18.6 0.2 16.8 307.8 78.5
8/7/2017 22.6 15.2 18.3 3.0 49.2 307.6 91.6
8/6/2017 24.6 11.8 18.9 0.0 46.2 304.6 73.3
8/5/2017 21.1 13.3 17.3 0.0 46.2 304.6 72.0
8/4/2017 25.5 16.8 20.6 13.6 46.2 304.6 86.7
8/3/2017 29.0 18.8 23.2 0.0 32.6 291.0 80.9
8/2/2017 29.1 16.8 23.3 0.0 33.4 291.0 76.4
8/1/2017 29.5 16.8 22.5 32.6 33.4 291.0 77.9
7/31/2017 30.5 16.9 23.6 0.0 0.8 258.4 64.4
7/30/2017 30.2 16.9 23.2 0.0 0.8 258.4 56.8
7/29/2017 27.6 13.4 20.7 0.0 0.8 258.4 64.9
7/28/2017 22.9 16.0 19.5 0.0 1.4 258.4 74.7
7/27/2017 26.5 18.8 22.6 0.8 1.4 258.4 82.9
7/26/2017 23.9 11.5 18.6 0.0 0.6 257.6 79.4
7/25/2017 24.0 14.4 18.6 0.0 0.6 257.6 75.8
7/24/2017 21.4 16.2 18.8 0.0 0.6 257.6 86.2
7/23/2017 26.7 18.2 21.9 0.0 0.6 257.6 85.0
7/22/2017 24.0 18.5 21.4 0.6 1.0 257.6 82.9
7/21/2017 30.4 19.1 24.7 0.0 0.4 257.0 72.3
7/20/2017 28.9 17.6 21.7 0.0 0.8 257.0 87.3
7/19/2017 31.4 16.7 24.3 0.0 20.8 257.0 74.6
7/18/2017 26.3 14.6 21.0 0.0 20.8 257.0 76.5
7/17/2017 26.6 17.9 21.7 0.0 20.8 257.0 80.4
7/16/2017 26.2 17.3 21.6 0.4 21.4 257.0 82.3
7/15/2017 25.8 16.2 20.7 0.0 21.0 256.6 78.6
7/14/2017 26.3 17.3 20.7 0.4 21.0 256.6 85.6
7/13/2017 24.3 17.3 20.2 20.0 20.8 256.2 97.8
7/12/2017 27.0 20.5 23.8 0.0 0.8 236.2 87.4
7/11/2017 28.1 17.5 22.3 0.0 0.8 236.2 87.7
7/10/2017 23.5 18.1 20.8 0.6 0.8 236.2 82.9
7/9/2017 25.7 14.1 20.4 0.0 0.2 235.6 60.3
7/8/2017 24.7 15.5 20.5 0.0 0.2 235.6 68.7
7/7/2017 27.4 16.8 22.1 0.2 2.4 235.6 83.6
7/6/2017 27.5 14.0 21.7 0.0 16.4 235.4 70.8
7/5/2017 28.4 13.9 21.6 0.0 16.6 235.4 62.1
7/4/2017 25.3 13.7 20.5 0.0 16.6 235.4 62.5
7/3/2017 25.6 14.9 20.6 0.0 21.6 235.4 68.6
7/2/2017 26.5 14.0 21.1 0.0 26.4 235.4 75.2
7/1/2017 24.5 17.6 20.5 2.2 28.0 235.4 89.3
6/30/2017 26.7 18.9 22.1 14.2 36.0 233.2 85.9
6/29/2017 27.9 16.4 22.3 0.2 36.8 219.0 70.8
6/28/2017 23.0 12.7 18.2 0.0 45.4 218.8 68.9
6/27/2017 20.0 10.4 15.1 5.0 45.6 218.8 76.9
6/26/2017 20.6 12.1 16.4 4.8 45.4 213.8 73.3
6/25/2017 20.6 13.0 16.7 1.6 42.4 209.0 74.7
6/24/2017 23.4 14.5 19.2 10.2 41.2 207.4 82.1
6/23/2017 24.4 18.4 21.7 15.0 31.0 197.2 91.4
6/22/2017 27.1 11.9 19.3 8.8 16.0 182.2 81.6
6/21/2017 23.8 12.4 17.9 0.2 10.8 173.4 76.5
6/20/2017 23.4 14.0 18.0 4.8 10.6 173.2 79.1
6/19/2017 26.6 16.9 21.0 1.8 6.6 168.4 72.6
6/18/2017 28.7 20.3 24.8 0.4 4.8 166.6 74.5
6/17/2017 29.9 19.6 24.7 0.0 4.4 166.2 72.7
6/16/2017 30.5 17.1 24.1 0.0 4.4 166.2 67.0
6/15/2017 26.6 13.8 19.7 3.6 4.4 166.2 73.6
6/14/2017 26.1 15.6 20.6 0.0 0.8 162.6 66.2
6/13/2017 28.4 18.2 23.8 0.8 0.8 162.6 64.3
6/12/2017 30.2 20.8 25.8 0.0 3.2 161.8 58.7
6/11/2017 28.8 21.1 24.8 0.0 3.2 161.8 56.9
6/10/2017 27.8 13.8 22.2 0.0 8.6 161.8 65.9
6/9/2017 24.7 11.9 18.6 0.0 8.6 161.8 62.4
6/8/2017 22.9 8.6 16.8 0.0 8.6 161.8 62.2
6/7/2017 20.7 9.4 14.6 0.0 8.6 161.8 71.5
6/6/2017 19.0 11.3 14.1 3.2 8.6 161.8 86.6
6/5/2017 18.9 11.4 14.9 0.0 6.0 158.6 89.4
6/4/2017 25.1 13.7 18.4 5.4 6.4 158.6 79.0
6/3/2017 20.4 9.9 15.9 0.0 9.8 153.2 61.6
6/2/2017 21.9 8.5 15.6 0.0 9.8 153.2 57.1
6/1/2017 19.1 9.9 14.7 0.0 9.8 153.2 59.9
5/31/2017 22.2 11.1 17.4 0.0 52.2 153.2 63.1
5/30/2017 23.1 14.1 18.6 0.6 54.8 153.2 64.5
5/29/2017 23.8 15.6 19.2 0.4 54.2 152.6 73.7
5/28/2017 24.4 10.2 17.3 8.8 54.0 152.2 81.8
5/27/2017 19.3 9.3 14.8 0.0 56.4 143.4 86.0
5/26/2017 17.5 10.7 14.1 0.0 56.4 143.4 88.9
5/25/2017 13.8 10.7 12.8 42.4 56.4 143.4 99.4
5/24/2017 21.5 11.6 16.0 2.6 14.8 101.0 76.6
5/23/2017 22.5 8.5 16.7 0.0 12.2 98.4 63.9
5/22/2017 16.8 11.7 14.7 0.2 13.8 98.4 76.4
5/21/2017 17.4 9.8 14.4 11.2 13.6 98.2 88.9
5/20/2017 15.8 9.3 12.5 0.0 5.0 87.0 55.8
5/19/2017 20.0 9.1 13.5 0.0 5.0 87.0 70.2
5/18/2017 28.0 19.6 24.5 0.8 5.0 87.0 57.3
5/17/2017 28.5 11.8 22.2 0.0 6.0 86.2 65.2
5/16/2017 18.0 6.6 12.2 1.6 6.0 86.2 76.2
5/15/2017 20.9 4.8 13.2 0.0 4.4 84.6 60.2
5/14/2017 16.2 8.8 12.4 2.6 4.4 84.6 70.9
5/13/2017 17.8 7.4 13.0 0.0 2.0 82.0 70.4
5/12/2017 14.1 7.2 10.7 0.0 7.4 82.0 73.2
5/11/2017 13.6 6.0 9.3 1.8 27.4 82.0 70.4
5/10/2017 14.1 4.5 9.2 0.0 48.6 80.2 68.3
5/9/2017 12.3 -0.4 6.9 0.0 48.6 80.2 59.4
5/8/2017 10.1 0.5 5.8 0.0 51.4 80.2 56.4
5/7/2017 9.8 3.3 6.6 0.2 80.2 80.2 71.1
5/6/2017 7.3 4.8 6.0 5.4 101.4 80.0 91.8
5/5/2017 8.9 5.6 7.0 20.0 96.4 74.6 98.7
5/4/2017 8.4 5.8 6.9 23.0 76.4 54.6 89.0
5/3/2017 13.7 4.7 8.9 0.0 53.6 31.6 65.6
5/2/2017 11.1 6.9 8.7 2.8 53.6 31.6 81.2
5/1/2017 16.3 5.3 10.4 28.8 53.0 28.8 95.8